Time;durP1;ratioP1;P1;durP2;ratioP2;P2;SDS_P1;SDS_P2;PMS_P1;PMS_P2;Temp;Humidity;BMP_temperature;BMP_pressure;BME280_temperature;BME280_humidity;BME280_pressure;Samples;Min_cycle;Max_cycle;Signal;HPM_P1;HPM_P2
2022/02/11 00:02:17;;;;;;;;;10.00;7.50;;;;;6.44;80.27;102513.56;5050221;28;45962;-73
2022/02/11 00:07:21;;;;;;;;;9.00;8.50;;;;;6.36;79.80;102513.53;5051680;28;46144;-73
2022/02/11 00:09:47;;;;;;;;;7.00;6.75;;;;;6.32;80.43;102505.69;5052514;28;46124;-73
2022/02/11 00:12:12;;;;;;;;;14.00;11.25;;;;;6.30;80.67;102517.88;5052046;28;45522;-73
2022/02/11 00:14:54;;;;;;;;;6.75;6.75;;;;;6.26;80.75;102523.09;5052647;28;45607;-73
2022/02/11 00:17:19;;;;;;;;;11.00;9.25;;;;;6.24;80.85;102522.19;5052177;28;45477;-71
2022/02/11 00:19:45;;;;;;;;;10.25;7.50;;;;;6.22;80.56;102515.25;5054643;28;45473;-72
2022/02/11 00:22:11;;;;;;;;;12.00;6.75;;;;;6.20;80.91;102528.28;5049495;28;45511;-73
2022/02/11 00:24:37;;;;;;;;;8.25;8.25;;;;;6.17;80.62;102525.66;5052048;28;45471;-73
2022/02/11 00:32:47;;;;;;;;;9.50;8.00;;;;;6.12;80.89;102526.53;5002115;28;46052;-73
2022/02/11 00:35:26;;;;;;;;;9.25;6.00;;;;;6.09;80.81;102524.75;5016167;28;45578;-73
2022/02/11 00:37:51;;;;;;;;;10.25;9.25;;;;;6.07;80.72;102523.00;5027612;28;45415;-73
2022/02/11 01:03:58;;;;;;;;;7.00;5.50;;;;;5.81;81.92;102530.69;5018391;28;45883;-73
2022/02/11 01:06:24;;;;;;;;;10.50;9.00;;;;;5.81;81.73;102539.38;5018704;28;45496;-73
2022/02/11 01:08:50;;;;;;;;;12.75;12.25;;;;;5.79;82.00;102537.59;5021402;28;45511;-73
2022/02/11 01:11:23;;;;;;;;;11.00;10.25;;;;;5.73;81.78;102544.53;5055396;28;46123;-73
2022/02/11 01:13:48;;;;;;;;;9.50;9.00;;;;;5.74;81.92;102558.44;5057038;28;45853;-73
2022/02/11 01:16:19;;;;;;;;;9.50;8.50;;;;;5.71;81.85;102550.63;5054465;28;45482;-73
2022/02/11 01:18:51;;;;;;;;;7.75;7.75;;;;;5.69;81.89;102557.53;5054849;28;45571;-73
2022/02/11 01:21:25;;;;;;;;;8.00;6.75;;;;;5.66;81.97;102554.94;5054655;28;46211;-73
2022/02/11 01:24:10;;;;;;;;;9.00;9.00;;;;;5.63;81.90;102553.16;5054725;28;45996;-73
2022/02/11 01:26:51;;;;;;;;;10.25;9.00;;;;;5.61;81.51;102556.63;5039506;28;45519;-73
2022/02/11 01:32:01;;;;;;;;;11.00;8.50;;;;;5.58;82.18;102561.81;5057116;28;45998;-73
2022/02/11 01:34:45;;;;;;;;;12.00;8.50;;;;;5.57;82.22;102558.34;5055974;28;45521;-73
2022/02/11 01:45:44;;;;;;;;;12.00;8.00;;;;;5.48;82.15;102564.38;5017788;28;45320;-73
2022/02/11 01:56:02;;;;;;;;;12.00;7.50;;;;;5.41;81.75;102580.81;5018515;28;45707;-73
2022/02/11 02:01:44;;;;;;;;;12.50;9.00;;;;;5.38;82.01;102580.81;5017775;28;45602;-73
2022/02/11 02:04:33;;;;;;;;;11.75;9.00;;;;;5.36;81.70;102579.03;5016829;28;46032;-73
2022/02/11 02:15:23;;;;;;;;;9.00;9.00;;;;;5.29;82.04;102593.78;5041034;28;45300;-73
2022/02/11 02:25:57;;;;;;;;;10.50;8.75;;;;;5.20;82.27;102606.72;4993268;28;45413;-73
2022/02/11 02:39:15;;;;;;;;;10.00;8.00;;;;;5.13;82.09;102613.63;4993229;28;46011;-73
2022/02/11 02:58:00;;;;;;;;;9.50;5.50;;;;;5.00;81.91;102616.06;5051754;28;45396;-72
2022/02/11 03:31:39;;;;;;;;;12.25;8.25;;;;;4.84;82.06;102633.28;5016295;28;45993;-72
2022/02/11 03:58:53;;;;;;;;;13.00;8.00;;;;;4.66;82.78;102673.00;4994809;28;45376;-72
2022/02/11 04:55:35;;;;;;;;;14.00;8.00;;;;;4.38;83.20;102742.03;4980051;28;45378;-72
2022/02/11 05:00:44;;;;;;;;;8.50;6.50;;;;;4.37;83.53;102751.59;4959158;28;45925;-72
2022/02/11 05:03:09;;;;;;;;;8.67;8.67;;;;;4.36;83.34;102754.16;4959149;28;45273;-72
2022/02/11 05:05:50;;;;;;;;;9.33;7.00;;;;;4.35;83.47;102761.09;4955009;28;47833;-72
2022/02/11 05:08:19;;;;;;;;;7.25;7.00;;;;;4.32;83.12;102763.66;4955773;28;46251;-72
2022/02/11 05:10:46;;;;;;;;;11.00;5.75;;;;;4.32;83.47;102768.84;4960424;28;45303;-72
2022/02/11 05:13:12;;;;;;;;;11.50;6.75;;;;;4.32;83.33;102775.78;4965248;28;45632;-72
2022/02/11 05:15:38;;;;;;;;;9.50;8.00;;;;;4.31;83.76;102774.03;4964560;28;45604;-72
2022/02/11 05:18:05;;;;;;;;;9.25;8.00;;;;;4.29;83.56;102779.25;4994325;28;45595;-72
2022/02/11 05:20:30;;;;;;;;;9.50;8.00;;;;;4.27;83.66;102770.50;5013445;28;45488;-72
2022/02/11 05:22:55;;;;;;;;;9.75;7.25;;;;;4.28;83.77;102771.38;5054212;28;45500;-72
2022/02/11 05:25:21;;;;;;;;;11.75;7.75;;;;;4.28;83.64;102787.00;5055278;28;45456;-72
2022/02/11 05:27:46;;;;;;;;;11.25;7.00;;;;;4.26;83.26;102789.59;5054589;28;45431;-72
2022/02/11 05:30:12;;;;;;;;;10.50;6.25;;;;;4.25;83.80;102803.47;5053229;28;45379;-72
2022/02/11 05:32:37;;;;;;;;;11.00;9.00;;;;;4.25;83.77;102798.25;5053702;28;45659;-72
2022/02/11 05:35:03;;;;;;;;;13.00;10.50;;;;;4.22;83.65;102790.38;5056015;28;45388;-72
2022/02/11 05:37:29;;;;;;;;;10.00;8.00;;;;;4.24;83.47;102800.84;5055119;28;45752;-72
2022/02/11 05:39:55;;;;;;;;;8.00;8.00;;;;;4.22;83.99;102800.78;5054718;28;45390;-72
2022/02/11 05:42:20;;;;;;;;;11.00;8.25;;;;;4.23;83.42;102801.66;5054824;28;45279;-72
2022/02/11 05:44:45;;;;;;;;;10.00;9.00;;;;;4.14;83.48;102794.59;5054465;28;45504;-72
2022/02/11 05:47:11;;;;;;;;;14.50;13.00;;;;;4.21;83.80;102806.84;5054753;28;46022;-72
2022/02/11 05:49:36;;;;;;;;;9.33;8.00;;;;;4.17;83.52;102807.66;5056561;28;47328;-72
2022/02/11 05:52:02;;;;;;;;;8.33;7.00;;;;;4.16;83.63;102805.91;5055005;28;45422;-72
2022/02/11 05:54:27;;;;;;;;;9.25;7.00;;;;;4.16;83.43;102821.50;5054478;28;45573;-72
2022/02/11 05:56:53;;;;;;;;;12.00;8.00;;;;;4.16;83.68;102829.31;5054432;28;46223;-72
2022/02/11 05:59:18;;;;;;;;;7.25;7.25;;;;;4.14;83.78;102833.63;5054022;28;45399;-72
2022/02/11 06:01:44;;;;;;;;;13.25;9.00;;;;;4.15;83.53;102843.19;5056416;28;45601;-72
2022/02/11 06:04:09;;;;;;;;;9.50;7.00;;;;;4.13;83.93;102837.97;5053921;28;45376;-72
2022/02/11 06:06:34;;;;;;;;;10.50;8.00;;;;;4.13;84.09;102840.56;5052754;28;45473;-72
2022/02/11 06:09:00;;;;;;;;;10.50;8.75;;;;;4.13;83.53;102840.56;5054552;28;45443;-72
2022/02/11 06:11:29;;;;;;;;;8.25;7.00;;;;;4.13;84.13;102844.91;5052865;28;45275;-72
2022/02/11 06:13:57;;;;;;;;;14.75;8.75;;;;;4.13;83.62;102850.09;5055769;28;45377;-72
2022/02/11 06:16:23;;;;;;;;;7.50;6.50;;;;;4.11;83.84;102857.84;5053968;28;46742;-72
2022/02/11 06:18:49;;;;;;;;;17.00;8.75;;;;;4.12;84.01;102853.53;5053818;28;45391;-72
2022/02/11 06:21:14;;;;;;;;;7.25;7.25;;;;;4.11;83.41;102857.84;5053104;28;45463;-72
2022/02/11 06:23:40;;;;;;;;;13.75;8.00;;;;;4.10;83.60;102855.25;5054199;28;45505;-72
2022/02/11 06:26:05;;;;;;;;;11.75;8.75;;;;;4.08;83.60;102857.81;5054403;28;46568;-72
2022/02/11 06:28:30;;;;;;;;;14.50;11.00;;;;;4.07;84.06;102861.28;5054635;28;48507;-72
2022/02/11 06:30:55;;;;;;;;;9.00;8.67;;;;;4.06;83.82;102851.69;5054175;28;45317;-72
2022/02/11 06:33:21;;;;;;;;;9.67;8.00;;;;;4.03;83.88;102863.78;5054021;28;51828;-72
2022/02/11 06:35:47;;;;;;;;;10.50;10.50;;;;;4.00;83.85;102868.94;5052574;28;46057;-72
2022/02/11 06:38:12;;;;;;;;;13.75;9.50;;;;;3.96;83.73;102870.59;5053765;28;45437;-72
2022/02/11 06:40:38;;;;;;;;;12.00;10.50;;;;;3.93;83.61;102884.44;5055278;28;45467;-72
2022/02/11 06:43:03;;;;;;;;;14.25;12.25;;;;;3.92;84.05;102895.69;5052999;28;45428;-72
2022/02/11 06:45:29;;;;;;;;;27.75;25.25;;;;;3.91;84.13;102893.94;5052492;28;45494;-72
2022/02/11 06:47:54;;;;;;;;;27.25;22.75;;;;;3.91;83.96;102893.03;5052794;28;45317;-72
2022/02/11 06:50:20;;;;;;;;;19.00;16.50;;;;;3.89;83.63;102902.53;5052923;28;45602;-72
2022/02/11 06:52:45;;;;;;;;;20.75;18.25;;;;;3.87;83.98;102905.13;5058831;28;45274;-73
2022/02/11 06:55:11;;;;;;;;;21.50;18.00;;;;;3.86;83.88;102907.69;5055286;27;47163;-73
2022/02/11 06:57:36;;;;;;;;;31.25;18.50;;;;;3.84;84.00;102912.84;5057460;28;45356;-73
2022/02/11 07:00:03;;;;;;;;;25.75;21.75;;;;;3.82;83.87;102913.69;5054743;28;45421;-72
2022/02/11 07:02:29;;;;;;;;;18.00;14.25;;;;;3.81;84.25;102925.81;5051577;28;45413;-73
2022/02/11 07:04:56;;;;;;;;;17.75;14.50;;;;;3.81;84.46;102933.63;5055894;28;46883;-73
2022/02/11 07:07:21;;;;;;;;;15.50;15.50;;;;;3.81;84.16;102936.22;5052543;28;45442;-72
2022/02/11 07:09:49;;;;;;;;;17.75;16.00;;;;;3.80;83.88;102925.78;5053117;28;45237;-72
2022/02/11 07:12:15;;;;;;;;;18.25;17.75;;;;;3.83;84.13;102933.66;5053149;28;45550;-73
2022/02/11 07:14:40;;;;;;;;;24.50;18.00;;;;;3.83;84.28;102937.13;5053046;28;47823;-73
2022/02/11 07:17:05;;;;;;;;;37.00;29.33;;;;;3.82;83.90;102937.09;5063610;28;45276;-73
2022/02/11 07:19:31;;;;;;;;;51.50;39.00;;;;;3.84;84.13;102945.78;5054585;28;45822;-72
2022/02/11 07:22:00;;;;;;;;;41.50;36.50;;;;;3.83;83.77;102957.06;5052932;28;45564;-72
2022/02/11 07:24:26;;;;;;;;;45.50;37.25;;;;;3.87;83.83;102975.34;5052854;28;45940;-72
2022/02/11 07:26:52;;;;;;;;;28.50;22.75;;;;;3.91;83.83;102976.28;5053146;28;45518;-73
2022/02/11 07:29:17;;;;;;;;;28.00;19.33;;;;;3.97;84.05;102978.13;5052541;28;45399;-71
2022/02/11 07:31:42;;;;;;;;;28.33;26.33;;;;;4.02;83.69;102989.50;5053728;28;45456;-74
2022/02/11 07:34:08;;;;;;;;;20.75;20.75;;;;;4.09;83.54;102999.22;5052133;28;47159;-72
2022/02/11 07:36:33;;;;;;;;;29.00;25.75;;;;;4.14;83.66;102995.84;5052335;28;45535;-73
2022/02/11 07:39:00;;;;;;;;;21.75;18.75;;;;;4.24;83.98;102999.50;5053435;28;45276;-72
2022/02/11 07:41:25;;;;;;;;;26.00;22.00;;;;;4.36;83.89;103009.28;5051931;28;45534;-72
2022/02/11 07:43:51;;;;;;;;;34.75;30.75;;;;;4.48;83.53;103016.44;5054530;28;45343;-72
2022/02/11 07:46:16;;;;;;;;;25.75;25.00;;;;;4.64;83.82;103019.34;5051864;28;45532;-72
2022/02/11 07:48:41;;;;;;;;;33.75;28.75;;;;;4.91;83.54;103021.59;5051461;28;45426;-72
2022/02/11 07:51:07;;;;;;;;;29.00;27.67;;;;;5.33;83.44;103015.31;5052351;28;45422;-72
2022/02/11 07:53:35;;;;;;;;;28.75;22.00;;;;;6.30;84.17;103009.66;5048865;28;48148;-72
2022/02/11 07:56:04;;;;;;;;;32.75;25.50;;;;;7.41;81.68;103009.75;5053194;28;45987;-72
2022/02/11 07:58:29;;;;;;;;;32.75;25.25;;;;;8.32;80.22;103011.94;5053505;28;45657;-72
2022/02/11 08:00:55;;;;;;;;;30.75;26.00;;;;;9.62;79.15;103003.25;5052240;28;45535;-72
2022/02/11 08:03:22;;;;;;;;;27.25;27.00;;;;;10.81;75.83;103009.69;5051873;28;47051;-72
2022/02/11 08:05:48;;;;;;;;;30.25;23.25;;;;;11.33;72.62;103011.84;5052224;28;45386;-72
2022/02/11 08:08:13;;;;;;;;;26.00;23.25;;;;;12.09;72.34;103018.03;5053568;28;45551;-72
2022/02/11 08:10:39;;;;;;;;;29.50;22.00;;;;;13.17;70.97;103023.47;5053539;28;45501;-72
2022/02/11 08:13:04;;;;;;;;;23.00;21.67;;;;;14.25;69.09;103015.19;5051768;28;51326;-71
2022/02/11 08:15:29;;;;;;;;;23.50;21.75;;;;;15.23;67.06;103026.97;5052273;28;45410;-72
2022/02/11 08:17:55;;;;;;;;;24.50;21.75;;;;;15.62;64.46;103025.06;5051774;28;45506;-73
2022/02/11 08:20:20;;;;;;;;;30.50;24.75;;;;;15.50;63.28;103032.47;5068302;28;45368;-73
2022/02/11 08:22:45;;;;;;;;;22.50;19.25;;;;;15.70;62.58;103032.81;5052596;28;46149;-72
2022/02/11 08:25:11;;;;;;;;;23.75;22.00;;;;;16.17;61.78;103030.56;5051122;28;45667;-73
2022/02/11 08:27:36;;;;;;;;;22.00;18.75;;;;;17.28;61.71;103036.78;5052700;28;49124;-72
2022/02/11 08:30:03;;;;;;;;;26.00;20.50;;;;;18.46;60.65;103038.63;5051088;28;45518;-71
2022/02/11 08:32:30;;;;;;;;;15.75;14.75;;;;;19.68;58.57;103040.66;5051556;28;45464;-73
2022/02/11 08:34:57;;;;;;;;;19.50;16.00;;;;;20.93;56.41;103043.66;5059923;28;45832;-73
2022/02/11 08:37:23;;;;;;;;;13.50;12.25;;;;;22.10;53.93;103050.03;5053240;28;45396;-73
2022/02/11 08:39:48;;;;;;;;;16.75;15.25;;;;;23.16;52.46;103058.28;5053877;28;45415;-72
2022/02/11 08:42:14;;;;;;;;;18.50;14.00;;;;;24.12;50.83;103062.28;5058153;28;46314;-73
2022/02/11 08:44:40;;;;;;;;;13.50;13.00;;;;;25.00;49.26;103052.88;5051297;28;47672;-73
2022/02/11 08:47:06;;;;;;;;;17.25;15.00;;;;;25.83;47.84;103061.53;5054556;28;45422;-73
2022/02/11 08:49:31;;;;;;;;;18.75;16.00;;;;;26.39;46.17;103061.13;5054885;28;46728;-73
2022/02/11 08:51:57;;;;;;;;;15.75;12.75;;;;;26.84;45.18;103067.66;5054569;28;46292;-74
2022/02/11 08:54:22;;;;;;;;;12.50;12.50;;;;;27.54;44.35;103081.16;5054491;28;45461;-73
2022/02/11 08:56:48;;;;;;;;;18.00;15.00;;;;;28.13;43.29;103072.00;5054868;28;45375;-73
2022/02/11 08:59:14;;;;;;;;;15.50;12.00;;;;;28.69;41.18;103074.63;5063281;28;45363;-73
2022/02/11 09:01:39;;;;;;;;;14.00;12.25;;;;;29.36;40.85;103071.63;5056846;28;46053;-73
2022/02/11 09:04:05;;;;;;;;;13.75;10.75;;;;;29.90;40.11;103075.06;5054835;28;45326;-73
2022/02/11 09:06:30;;;;;;;;;14.25;11.75;;;;;30.26;38.84;103079.09;5061292;28;45439;-73
2022/02/11 09:08:55;;;;;;;;;16.50;9.50;;;;;30.37;37.35;103088.97;5065621;28;45425;-72
2022/02/11 09:11:21;;;;;;;;;18.00;14.50;;;;;30.80;37.16;103082.34;5064202;28;45277;-73
2022/02/11 09:13:48;;;;;;;;;9.75;8.00;;;;;31.39;36.80;103078.63;5056265;28;45434;-73
2022/02/11 09:16:14;;;;;;;;;15.00;13.25;;;;;31.90;35.76;103078.22;5054783;28;45429;-73
2022/02/11 09:18:40;;;;;;;;;12.00;9.00;;;;;32.38;35.05;103096.19;5060167;28;45439;-74
2022/02/11 09:21:08;;;;;;;;;13.25;11.00;;;;;32.58;34.83;103098.78;5056459;27;46204;-74
2022/02/11 09:23:34;;;;;;;;;10.00;9.00;;;;;32.67;33.37;103109.56;5069308;27;45499;-73
2022/02/11 09:26:00;;;;;;;;;9.50;4.50;;;;;32.85;33.08;103106.88;5059999;27;45461;-73
2022/02/11 09:28:26;;;;;;;;;8.25;8.00;;;;;33.23;32.38;103121.19;5054330;28;45633;-74
2022/02/11 09:30:51;;;;;;;;;12.50;9.00;;;;;33.51;31.96;103130.13;5054400;28;47265;-72
2022/02/11 09:33:16;;;;;;;;;22.75;18.25;;;;;33.75;31.45;103132.16;5057347;28;45521;-72
2022/02/11 09:35:42;;;;;;;;;12.00;10.00;;;;;34.23;30.55;103128.00;5056514;28;45491;-72
2022/02/11 09:38:09;;;;;;;;;10.50;9.00;;;;;34.67;30.30;103127.84;5062148;28;45625;-71
2022/02/11 09:40:43;;;;;;;;;10.00;9.00;;;;;34.94;29.38;103132.13;5061892;28;45653;-72
2022/02/11 09:43:09;;;;;;;;;66.50;51.25;;;;;35.14;29.08;103127.22;5055406;28;45688;-72
2022/02/11 09:45:35;;;;;;;;;24.00;21.75;;;;;35.22;28.95;103138.16;5056458;28;45589;-72
2022/02/11 09:48:01;;;;;;;;;25.00;24.50;;;;;35.36;28.16;103137.47;5062753;28;45523;-73
2022/02/11 09:50:28;;;;;;;;;20.75;17.50;;;;;35.49;28.83;103150.63;5060003;28;46462;-73
2022/02/11 09:52:55;;;;;;;;;11.75;10.25;;;;;35.77;27.24;103151.09;5066112;28;45547;-73
2022/02/11 09:55:32;;;;;;;;;8.00;6.50;;;;;35.84;26.87;103154.84;5050947;28;45336;-73
2022/02/11 09:57:58;;;;;;;;;11.75;9.25;;;;;35.84;26.94;103143.91;5051371;28;46077;-73
2022/02/11 10:00:25;;;;;;;;;8.50;7.25;;;;;35.98;27.04;103151.41;5061156;28;48054;-73
2022/02/11 10:02:52;;;;;;;;;10.25;9.50;;;;;35.90;25.63;103158.75;5066337;27;45500;-73
2022/02/11 10:05:26;;;;;;;;;14.00;13.00;;;;;35.85;25.99;103162.00;5053809;28;45611;-73
2022/02/11 10:07:53;;;;;;;;;14.50;13.00;;;;;35.94;26.36;103168.38;5052089;28;45441;-73
2022/02/11 10:10:38;;;;;;;;;19.75;16.25;;;;;35.80;25.53;103162.53;5056618;28;45489;-73
2022/02/11 10:13:08;;;;;;;;;7.00;6.75;;;;;35.20;24.77;103153.88;5055744;28;45492;-74
2022/02/11 10:15:37;;;;;;;;;17.75;16.75;;;;;34.10;25.07;103163.09;5063739;27;45483;-74
2022/02/11 10:18:07;;;;;;;;;7.25;6.50;;;;;33.41;25.91;103168.41;5052630;28;45486;-75
2022/02/11 10:20:37;;;;;;;;;8.50;5.00;;;;;32.89;25.65;103173.69;5055455;28;46354;-74
2022/02/11 10:23:17;;;;;;;;;11.25;6.25;;;;;32.46;26.82;103167.03;5053992;28;45764;-75
2022/02/11 10:25:58;;;;;;;;;9.00;6.25;;;;;31.72;25.97;103163.38;5054801;28;45412;-75
2022/02/11 10:28:43;;;;;;;;;7.75;7.75;;;;;31.24;27.10;103167.00;5053007;28;45521;-74
2022/02/11 10:31:21;;;;;;;;;11.75;10.00;;;;;30.49;27.27;103169.28;5053644;28;45478;-73
2022/02/11 10:34:03;;;;;;;;;13.50;13.50;;;;;29.78;27.13;103174.59;5054918;28;45636;-73
2022/02/11 10:36:35;;;;;;;;;12.50;12.00;;;;;29.06;27.64;103187.97;5051992;28;45542;-73
2022/02/11 10:39:21;;;;;;;;;7.75;6.75;;;;;27.97;28.57;103191.28;5055034;28;45474;-72
2022/02/11 10:41:55;;;;;;;;;7.00;7.00;;;;;27.19;29.49;103194.56;5056047;28;46355;-72
2022/02/11 10:44:25;;;;;;;;;6.50;5.00;;;;;26.52;29.37;103200.38;5060832;28;45301;-73
2022/02/11 10:46:53;;;;;;;;;8.75;6.50;;;;;25.89;29.89;103206.56;5057089;28;45230;-73
2022/02/11 10:49:38;;;;;;;;;13.75;10.00;;;;;25.33;30.60;103210.41;5053201;28;45693;-73
2022/02/11 10:52:17;;;;;;;;;7.50;7.50;;;;;24.96;30.78;103205.59;5053398;28;46222;-73
2022/02/11 10:54:49;;;;;;;;;5.25;5.25;;;;;23.77;30.96;103204.97;5053774;28;45462;-73
2022/02/11 10:57:16;;;;;;;;;21.50;16.00;;;;;22.94;31.83;103205.31;5053794;28;45551;-73
2022/02/11 10:59:46;;;;;;;;;28.50;26.25;;;;;22.81;32.64;103211.34;5053152;28;45702;-73
2022/02/11 11:02:15;;;;;;;;;60.50;47.50;;;;;22.89;33.15;103213.63;5052807;28;46591;-73
2022/02/11 11:04:41;;;;;;;;;16.75;16.50;;;;;22.93;32.85;103212.50;5054787;28;45404;-73
2022/02/11 11:07:07;;;;;;;;;23.75;21.75;;;;;22.81;32.83;103210.47;5051970;28;45380;-73
2022/02/11 11:09:35;;;;;;;;;61.75;47.50;;;;;22.19;33.09;103212.06;5053826;28;45382;-73
2022/02/11 11:12:01;;;;;;;;;18.25;16.75;;;;;21.32;34.11;103217.34;5053193;28;46886;-73
2022/02/11 11:14:28;;;;;;;;;13.00;8.00;;;;;21.06;34.53;103216.75;5053246;28;45550;-73
2022/02/11 11:16:55;;;;;;;;;11.25;10.25;;;;;20.97;34.93;103211.84;5054861;28;45396;-73
2022/02/11 11:19:23;;;;;;;;;17.75;14.50;;;;;20.98;34.85;103204.69;5052178;28;45395;-73
2022/02/11 11:22:11;;;;;;;;;13.75;12.50;;;;;21.04;35.49;103213.31;5052877;28;47099;-72
2022/02/11 11:24:59;;;;;;;;;12.00;7.50;;;;;20.73;34.91;103215.69;5051519;28;45694;-72
2022/02/11 11:27:42;;;;;;;;;16.00;13.00;;;;;20.45;35.61;103206.22;5053154;28;45380;-72
2022/02/11 11:30:36;;;;;;;;;32.75;30.75;;;;;20.45;35.72;103206.22;5052490;28;45309;-73
2022/02/11 11:33:04;;;;;;;;;13.25;11.50;;;;;20.13;35.79;103201.47;5052462;28;45595;-73
2022/02/11 11:35:40;;;;;;;;;10.00;7.50;;;;;19.66;36.09;103193.72;5051791;28;45585;-73
2022/02/11 11:38:17;;;;;;;;;14.00;8.50;;;;;18.90;36.12;103203.00;5053719;28;45388;-72
2022/02/11 11:41:03;;;;;;;;;10.00;9.50;;;;;17.93;36.96;103192.31;5053783;28;45522;-73
2022/02/11 11:43:34;;;;;;;;;9.00;9.00;;;;;17.35;37.54;103210.19;5053767;28;45437;-73
2022/02/11 11:46:15;;;;;;;;;8.50;7.75;;;;;16.78;38.33;103217.25;5052761;28;45376;-73
2022/02/11 11:49:14;;;;;;;;;6.00;6.00;;;;;16.16;39.34;103222.50;5052964;28;45537;-73
2022/02/11 11:51:40;;;;;;;;;9.50;9.00;;;;;15.78;39.93;103218.22;5052776;28;45574;-72
2022/02/11 11:54:17;;;;;;;;;10.25;8.25;;;;;15.74;40.50;103214.75;5053018;28;46009;-72
2022/02/11 11:57:01;;;;;;;;;21.50;21.25;;;;;15.94;40.94;103213.38;5052901;28;45730;-73
2022/02/11 11:59:30;;;;;;;;;14.00;12.25;;;;;15.97;41.06;103215.94;5035816;28;45416;-72
2022/02/11 12:02:07;;;;;;;;;25.75;23.50;;;;;16.09;41.02;103218.28;5052727;28;45329;-73
2022/02/11 12:04:41;;;;;;;;;18.25;11.75;;;;;16.05;41.08;103216.63;5054172;28;46514;-72
2022/02/11 12:07:09;;;;;;;;;10.25;9.25;;;;;15.64;41.12;103215.88;5051289;28;45320;-72
2022/02/11 12:09:35;;;;;;;;;5.75;5.75;;;;;15.03;40.88;103222.56;5052778;28;45345;-72
2022/02/11 12:12:07;;;;;;;;;7.25;6.00;;;;;14.56;42.29;103208.56;5052683;28;45423;-72
2022/02/11 12:14:35;;;;;;;;;10.50;6.00;;;;;14.23;42.43;103215.38;5050914;28;46146;-72
2022/02/11 12:17:02;;;;;;;;;7.00;7.00;;;;;14.06;42.72;103208.63;5053701;28;45794;-72
2022/02/11 12:19:29;;;;;;;;;14.75;10.00;;;;;14.05;44.07;103201.59;5053041;28;45580;-71
2022/02/11 12:21:56;;;;;;;;;28.75;26.75;;;;;14.39;44.09;103200.94;5052392;28;45433;-71
2022/02/11 12:27:23;;;;;;;;;7.75;5.50;;;;;15.34;43.54;103193.59;5053864;28;45556;-73
2022/02/11 12:30:07;;;;;;;;;11.00;6.00;;;;;15.73;43.10;103189.16;5055235;28;45492;-74
2022/02/11 12:32:37;;;;;;;;;7.50;6.00;;;;;16.05;42.35;103190.09;5039652;28;45428;-74
2022/02/11 12:35:04;;;;;;;;;13.75;10.25;;;;;16.16;42.35;103199.50;5057056;28;47087;-72
2022/02/11 12:37:31;;;;;;;;;7.50;6.00;;;;;15.82;41.93;103191.59;5055521;28;45822;-72
2022/02/11 12:40:06;;;;;;;;;7.00;6.00;;;;;15.34;42.07;103198.91;5055807;28;45415;-72
2022/02/11 12:42:32;;;;;;;;;8.00;7.00;;;;;14.92;42.56;103190.16;5054229;28;45527;-72
2022/02/11 12:44:59;;;;;;;;;10.25;7.00;;;;;14.63;43.20;103193.47;5055336;28;46010;-72
2022/02/11 12:47:24;;;;;;;;;9.75;7.50;;;;;14.47;43.90;103195.50;5038610;28;45184;-72
2022/02/11 12:49:54;;;;;;;;;9.25;8.00;;;;;14.23;44.06;103187.13;5056746;28;45284;-72
2022/02/11 12:52:28;;;;;;;;;9.75;8.00;;;;;13.90;44.16;103187.78;5055901;28;45651;-72
2022/02/11 12:54:59;;;;;;;;;8.25;6.50;;;;;13.52;44.39;103187.53;5054074;28;45297;-71
2022/02/11 12:57:24;;;;;;;;;10.75;8.00;;;;;13.20;45.48;103180.03;5055322;28;45714;-72
2022/02/11 12:59:53;;;;;;;;;8.75;6.00;;;;;12.96;45.53;103177.78;5054624;28;45428;-72
2022/02/11 13:02:23;;;;;;;;;7.25;6.50;;;;;12.71;46.46;103180.75;5053920;28;45528;-72
2022/02/11 13:05:14;;;;;;;;;7.25;3.00;;;;;12.49;46.01;103182.78;5057280;28;45573;-72
2022/02/11 13:07:45;;;;;;;;;10.50;6.75;;;;;12.40;45.98;103187.28;5055580;28;45387;-72
2022/02/11 13:10:22;;;;;;;;;10.50;9.75;;;;;12.36;46.37;103181.16;5055587;28;45396;-72
2022/02/11 13:12:51;;;;;;;;;5.75;4.75;;;;;12.56;46.46;103177.41;5055191;28;45557;-72
2022/02/11 13:15:18;;;;;;;;;11.00;9.00;;;;;12.73;46.58;103183.34;5054555;28;46138;-72
2022/02/11 13:17:44;;;;;;;;;5.00;3.00;;;;;12.92;46.00;103176.06;5055250;28;45316;-72
2022/02/11 13:20:11;;;;;;;;;4.50;4.50;;;;;13.06;45.37;103171.47;5056283;28;45334;-72
2022/02/11 13:22:39;;;;;;;;;7.25;4.00;;;;;13.12;45.45;103166.09;5054955;28;45514;-72
2022/02/11 13:25:05;;;;;;;;;3.75;3.50;;;;;13.24;45.59;103165.06;5055139;28;45604;-72
2022/02/11 13:27:51;;;;;;;;;6.00;4.00;;;;;13.45;45.85;103174.44;5054618;28;45510;-73
2022/02/11 13:30:31;;;;;;;;;9.50;7.50;;;;;13.71;45.83;103174.00;5054594;28;45494;-72
2022/02/11 13:32:59;;;;;;;;;5.00;4.75;;;;;13.98;45.86;103178.78;5053551;28;45304;-73
2022/02/11 13:35:25;;;;;;;;;4.00;4.00;;;;;14.22;45.63;103169.53;5054958;28;47019;-73
2022/02/11 13:37:59;;;;;;;;;6.50;4.00;;;;;14.56;45.19;103174.16;5051677;28;45517;-73
2022/02/11 13:40:27;;;;;;;;;7.50;5.00;;;;;14.80;45.17;103164.84;5056026;28;45341;-73
2022/02/11 13:43:03;;;;;;;;;26.75;22.00;;;;;15.04;45.45;103169.59;5054037;28;45381;-73
2022/02/11 13:45:30;;;;;;;;;6.50;5.50;;;;;15.13;43.88;103160.56;5054666;28;45896;-73
2022/02/11 13:48:06;;;;;;;;;5.00;3.50;;;;;15.22;44.58;103155.03;5054736;28;45908;-72
2022/02/11 13:50:32;;;;;;;;;7.50;3.00;;;;;15.07;43.49;103160.69;5070537;28;45334;-72
2022/02/11 13:53:04;;;;;;;;;5.00;2.25;;;;;14.78;44.06;103159.59;5056360;28;45577;-72
2022/02/11 13:55:34;;;;;;;;;6.50;4.00;;;;;14.52;43.84;103165.44;5055516;28;46514;-72
2022/02/11 13:58:14;;;;;;;;;3.00;3.00;;;;;14.31;44.08;103166.72;5054204;28;45438;-72
2022/02/11 14:00:40;;;;;;;;;3.25;3.25;;;;;14.08;44.25;103161.84;5055421;28;45421;-72
2022/02/11 14:03:06;;;;;;;;;3.00;2.00;;;;;13.72;44.45;103158.09;5054231;28;45510;-72
2022/02/11 14:05:53;;;;;;;;;2.25;2.25;;;;;13.41;44.52;103173.59;5054509;28;45831;-73
2022/02/11 14:08:19;;;;;;;;;3.75;3.75;;;;;13.19;45.05;103174.78;5054181;28;45391;-72
2022/02/11 14:10:46;;;;;;;;;4.75;4.50;;;;;13.02;45.09;103162.72;5056265;28;45391;-73
2022/02/11 14:13:12;;;;;;;;;3.25;3.00;;;;;12.88;45.54;103155.88;5052398;28;45580;-72
2022/02/11 14:15:41;;;;;;;;;4.00;3.00;;;;;12.83;45.51;103165.63;5054036;28;45317;-72
2022/02/11 14:18:07;;;;;;;;;9.00;4.50;;;;;12.79;46.03;103151.63;5054140;28;45353;-73
2022/02/11 14:20:36;;;;;;;;;5.25;3.00;;;;;12.80;46.09;103156.88;5054336;28;45536;-72
2022/02/11 14:23:16;;;;;;;;;8.75;5.25;;;;;12.76;46.08;103149.88;5055410;28;45533;-73
2022/02/11 14:25:42;;;;;;;;;3.75;3.00;;;;;12.72;45.98;103149.94;5038109;28;47193;-74
2022/02/11 14:28:12;;;;;;;;;6.25;4.25;;;;;12.69;46.13;103153.50;5053904;28;46201;-73
2022/02/11 14:30:42;;;;;;;;;3.25;3.25;;;;;12.66;46.56;103153.53;5055257;28;45556;-73
2022/02/11 14:33:08;;;;;;;;;3.25;3.25;;;;;12.67;46.41;103154.41;5053975;28;45556;-72
2022/02/11 14:35:33;;;;;;;;;5.75;5.00;;;;;12.63;46.76;103148.28;5053946;28;45581;-72
2022/02/11 14:37:59;;;;;;;;;5.75;4.00;;;;;12.65;46.49;103153.56;5055540;28;45490;-72
2022/02/11 14:40:24;;;;;;;;;6.00;2.75;;;;;12.67;46.47;103164.97;5052495;28;45397;-72
2022/02/11 14:42:49;;;;;;;;;3.75;3.75;;;;;12.66;46.78;103153.53;5053988;28;45364;-72
2022/02/11 14:45:14;;;;;;;;;5.00;3.50;;;;;12.63;47.00;103148.28;5053654;28;46200;-72
2022/02/11 14:47:40;;;;;;;;;5.00;4.00;;;;;12.50;46.58;103150.22;5053708;28;45423;-73
2022/02/11 14:50:06;;;;;;;;;5.00;3.00;;;;;12.43;47.56;103152.97;5054841;28;45341;-72
2022/02/11 14:52:32;;;;;;;;;4.00;3.00;;;;;12.38;46.72;103150.38;5053364;28;45529;-72
2022/02/11 14:54:58;;;;;;;;;3.00;3.00;;;;;12.29;47.17;103155.75;5053128;28;46015;-73
2022/02/11 14:57:23;;;;;;;;;4.75;2.25;;;;;12.12;46.23;103155.97;5053819;28;45400;-73
2022/02/11 14:59:49;;;;;;;;;3.25;2.25;;;;;11.94;46.56;103153.50;5053226;28;45447;-73
2022/02/11 15:02:14;;;;;;;;;4.50;3.00;;;;;11.80;46.91;103155.34;5053066;28;45361;-73